Raleigh, NC (27603)

2:22 PM EDT op 02 augustus 2015 (GMT -0400)
Heather Hills | | Change Station
CLOSE
Current Station
Persoonlijk weerstation
Location: Garner, NC
Geometrische hoogte: 361 ft
Nabije weerstations

Hoogte 361 ft 35.70 °N, 78.62 °W | Updated 24 minutes ago

Gedeeltelijk bewolkt
Gedeeltelijk bewolkt
89.2 °F
Voelt als 89 °F
N
1.7
Wind Variabel Wind van ZZW
Gusts 3.2 mijl/u

Vandaag
Hoog -- | Laag -- °F
--% Kans op neerslag
Gisteren
Hoog -- | Laag -- °F
Precip. -- inches
6:23 AM 8:18 PM
Afnemende maan, 92% visible
Druk 29.96 inches
Zicht 10.0 mijlen
Wolken Gering 6000 ft
Licht bewolkt 25000 ft
Warmteindex 89 °F
Dauwpunt 60 °F
Vochtigheid 37%
Neerslag 0.00 inches
Dikte sneeuw Niet beschikbaar.
UV 9 van de 12
Pollen 4.00 van de 12
Luchtkwaliteit Niet beschikbaar.
Flu Activity Niet beschikbaar.
METAR KRDU 021751Z 05004KT 10SM FEW060 SCT250 31/15 A2998 RMK AO2 SLP145 T03060150 10311 20233 58005 $

More Conditions Fewer Conditions

Druk 29.96 inches
Zicht 10.0 mijlen
Wolken Gering 6000 ft
Licht bewolkt 25000 ft
Warmteindex 89 °F
Dauwpunt 60 °F
Vochtigheid 37%
Neerslag 0.00 inches
Dikte sneeuw Niet beschikbaar.
UV 9 van de 12
Pollen 4.00 van de 12
Luchtkwaliteit Niet beschikbaar.
Flu Activity Niet beschikbaar.
METAR KRDU 021751Z 05004KT 10SM FEW060 SCT250 31/15 A2998 RMK AO2 SLP145 T03060150 10311 20233 58005 $

More Conditions Fewer Conditions

10-Day Weather Forecast

×

Almanac

Astronomie

Aug. 02, 2015 Opkomst Ondergang
Werkelijke tijd
Burgerlijke schemering
Nautische schemering
Astronomische schemering
Maan
Golflengte van het zichtbare licht
Daglengte
Tomorrow will be .
, % of the Moon is Illuminated

Extremen vandaag

State Highs State Lows

Community

WunderPhotos

Upload Photos

1,843,333 foto’s ge-upload!

WunderBlogs® & News

Nearby

Luchtkwaliteit

  Luchtkwaliteit LK-index Verontreinigende stof
Not available.

Dikte sneeuw

Station Depth Geometrische hoogte

Aardbevingen

Stad Distance Mag. Time & Date
Minimum magnitude displayed is 2.5.

Watertemperatuur langs de kust

Plaats Temperatuur

Stations

Nabije weerstations

Locatie station Temp. Gevoelstemperatuur Dauwpunt Vochtigheid Wind Precip. Hoogte Geactualiseerd Type